createdAt,value
2019-03-11T00:00:53.663Z,97.40
2019-03-11T00:03:23.465Z,98.10
2019-03-11T00:05:51.453Z,98.80
2019-03-11T00:08:19.244Z,99.30
2019-03-11T00:10:47.296Z,99.50
2019-03-11T00:13:15.093Z,99.90
2019-03-11T00:15:42.979Z,99.90
2019-03-11T00:18:10.905Z,99.90
2019-03-11T00:20:38.735Z,99.90
2019-03-11T00:23:06.529Z,99.90
2019-03-11T00:25:34.546Z,99.90
2019-03-11T00:28:02.381Z,99.90
2019-03-11T00:30:30.302Z,99.90
2019-03-11T00:32:58.331Z,99.90
2019-03-11T00:35:26.131Z,99.90
2019-03-11T00:37:53.971Z,99.90
2019-03-11T00:40:21.948Z,99.90
2019-03-11T00:42:49.792Z,99.90
2019-03-11T00:45:17.796Z,99.90
2019-03-11T00:47:45.776Z,99.90
2019-03-11T00:50:14.444Z,99.90
2019-03-11T00:52:42.590Z,99.90
2019-03-11T00:55:11.628Z,99.90
2019-03-11T00:57:39.476Z,99.90
2019-03-11T01:00:20.984Z,99.90
2019-03-11T01:02:48.974Z,99.90
2019-03-11T01:05:17.986Z,99.90
2019-03-11T01:07:45.851Z,99.90
2019-03-11T01:10:14.010Z,99.90
2019-03-11T01:12:41.995Z,99.90
2019-03-11T01:15:09.974Z,99.90
2019-03-11T01:17:37.783Z,99.90
2019-03-11T01:20:05.801Z,99.90
2019-03-11T01:22:33.621Z,99.40
2019-03-11T01:25:01.436Z,99.90
2019-03-11T01:27:29.396Z,99.00
2019-03-11T01:29:57.209Z,98.80
2019-03-11T01:32:25.137Z,98.70
2019-03-11T01:34:53.136Z,97.80
2019-03-11T01:37:20.957Z,97.60
2019-03-11T01:39:48.974Z,97.30
2019-03-11T01:42:16.824Z,96.90
2019-03-11T01:44:44.758Z,97.20
2019-03-11T01:47:12.793Z,96.90
2019-03-11T01:49:40.640Z,97.20
2019-03-11T01:52:08.461Z,96.10
2019-03-11T01:54:36.408Z,96.70
2019-03-11T01:57:04.251Z,96.00
2019-03-11T01:59:32.093Z,96.30
2019-03-11T02:02:00.134Z,96.40
2019-03-11T02:04:27.958Z,96.90
2019-03-11T02:06:59.050Z,97.20
2019-03-11T02:09:26.925Z,97.60
2019-03-11T02:11:54.877Z,97.50
2019-03-11T02:14:23.004Z,97.10
2019-03-11T02:16:50.851Z,97.00
2019-03-11T02:19:19.002Z,96.40
2019-03-11T02:21:46.838Z,96.80
2019-03-11T02:24:14.687Z,97.00
2019-03-11T02:26:42.616Z,97.00
2019-03-11T02:29:10.604Z,97.80
2019-03-11T02:31:38.777Z,97.60
2019-03-11T02:34:06.609Z,96.70
2019-03-11T02:36:34.454Z,94.70
2019-03-11T02:39:03.499Z,95.40
2019-03-11T02:41:31.533Z,94.90
2019-03-11T02:43:59.453Z,95.10
2019-03-11T02:46:27.348Z,93.90
2019-03-11T02:48:55.403Z,94.10
2019-03-11T02:51:23.196Z,94.10
2019-03-11T02:53:51.022Z,93.90
2019-03-11T02:56:19.020Z,92.20
2019-03-11T02:58:46.829Z,93.50
2019-03-11T03:01:52.921Z,93.90
2019-03-11T03:04:27.884Z,93.90
2019-03-11T03:06:55.928Z,93.10
2019-03-11T03:09:23.797Z,92.80
2019-03-11T03:11:51.734Z,93.40
2019-03-11T03:14:19.536Z,92.80
2019-03-11T03:16:47.370Z,92.60
2019-03-11T03:19:15.393Z,92.90
2019-03-11T03:21:43.223Z,93.40
2019-03-11T03:24:12.119Z,92.60
2019-03-11T03:26:40.135Z,92.30
2019-03-11T03:29:08.199Z,92.10
2019-03-11T03:31:36.071Z,92.60
2019-03-11T03:34:04.049Z,92.60
2019-03-11T03:36:32.125Z,92.40
2019-03-11T03:38:59.972Z,93.20
2019-03-11T03:41:28.125Z,93.80
2019-03-11T03:43:56.151Z,93.30
2019-03-11T03:46:23.971Z,93.90
2019-03-11T03:48:52.085Z,93.70
2019-03-11T03:51:20.122Z,93.80
2019-03-11T03:53:48.218Z,94.80
2019-03-11T03:56:16.061Z,94.30
2019-03-11T03:58:44.105Z,94.80
2019-03-11T04:01:11.900Z,95.90
2019-03-11T04:03:39.722Z,96.80
2019-03-11T04:06:07.696Z,98.50
2019-03-11T04:08:35.515Z,98.70
2019-03-11T04:11:03.673Z,98.80
2019-03-11T04:13:31.632Z,99.70
2019-03-11T04:15:59.444Z,99.90
2019-03-11T04:18:56.629Z,98.90
2019-03-11T04:21:24.455Z,99.90
2019-03-11T04:23:52.613Z,99.90
2019-03-11T04:26:27.479Z,99.90
2019-03-11T04:28:55.807Z,99.90
2019-03-11T04:31:24.871Z,99.80
2019-03-11T04:33:52.743Z,99.90
2019-03-11T04:36:20.936Z,99.90
2019-03-11T04:38:48.917Z,99.90
2019-03-11T04:41:16.858Z,99.90
2019-03-11T04:43:44.651Z,99.90
2019-03-11T04:46:12.626Z,99.90
2019-03-11T04:48:40.716Z,99.90
2019-03-11T04:51:08.538Z,99.90
2019-03-11T04:53:36.358Z,99.90
2019-03-11T04:56:04.314Z,99.90
2019-03-11T04:58:32.133Z,99.90
2019-03-11T05:01:00.057Z,99.90
2019-03-11T05:03:27.852Z,99.90
2019-03-11T05:05:55.802Z,99.90
2019-03-11T05:08:23.769Z,99.90
2019-03-11T05:10:51.563Z,99.90
2019-03-11T05:13:19.374Z,99.90
2019-03-11T05:15:47.391Z,99.90
2019-03-11T05:18:15.234Z,99.90
2019-03-11T05:20:43.066Z,99.90
2019-03-11T05:23:11.001Z,99.90
2019-03-11T05:25:38.825Z,99.90
2019-03-11T05:28:06.655Z,99.90
2019-03-11T05:30:34.612Z,99.90
2019-03-11T05:33:02.434Z,99.90
2019-03-11T05:35:30.228Z,99.90
2019-03-11T05:37:58.192Z,99.90
2019-03-11T05:40:25.991Z,99.90
2019-03-11T05:42:53.792Z,99.90
2019-03-11T05:45:21.734Z,99.90
2019-03-11T05:47:52.417Z,99.90
2019-03-11T05:50:20.418Z,99.90
2019-03-11T05:52:48.186Z,99.90
2019-03-11T05:55:16.390Z,99.90
2019-03-11T05:57:46.390Z,99.90
2019-03-11T06:00:19.862Z,99.90
2019-03-11T06:02:47.659Z,99.90
2019-03-11T06:05:17.235Z,99.90
2019-03-11T06:07:45.160Z,99.90
2019-03-11T06:10:13.190Z,99.90
2019-03-11T06:12:41.516Z,99.90
2019-03-11T06:15:09.795Z,99.90
2019-03-11T06:17:37.892Z,99.90
2019-03-11T06:20:26.420Z,99.90
2019-03-11T06:22:54.818Z,99.90
2019-03-11T06:25:22.619Z,99.70
2019-03-11T06:27:50.529Z,99.60
2019-03-11T06:30:18.711Z,99.70
2019-03-11T06:32:46.688Z,99.90
2019-03-11T06:35:14.588Z,99.20
2019-03-11T06:37:42.382Z,99.50
2019-03-11T06:40:10.621Z,99.80
2019-03-11T06:42:38.526Z,99.80
2019-03-11T06:45:06.348Z,99.90
2019-03-11T06:47:34.335Z,99.60
2019-03-11T06:50:02.407Z,98.90
2019-03-11T06:52:30.580Z,99.80
2019-03-11T06:54:59.472Z,99.60
2019-03-11T06:57:27.276Z,96.80
2019-03-11T06:59:56.547Z,97.80
2019-03-11T07:02:24.515Z,97.60
2019-03-11T07:04:52.319Z,98.20
2019-03-11T07:07:20.135Z,98.00
2019-03-11T07:09:48.136Z,98.30
2019-03-11T07:12:15.940Z,98.50
2019-03-11T07:14:43.878Z,98.10
2019-03-11T07:17:12.679Z,97.80
2019-03-11T07:19:40.495Z,98.10
2019-03-11T07:22:08.279Z,97.00
2019-03-11T07:24:36.282Z,98.50
2019-03-11T07:27:04.082Z,99.80
2019-03-11T07:29:32.122Z,99.90
2019-03-11T07:31:59.951Z,99.90
2019-03-11T07:34:29.702Z,99.90
2019-03-11T07:36:57.481Z,99.90
2019-03-11T07:39:25.441Z,99.90
2019-03-11T07:41:53.238Z,99.90
2019-03-11T07:44:21.197Z,99.90
2019-03-11T07:46:49.014Z,99.90
2019-03-11T07:49:17.039Z,99.90
2019-03-11T07:51:44.928Z,99.90
2019-03-11T07:54:12.933Z,99.90
2019-03-11T07:56:40.857Z,99.90
2019-03-11T07:59:08.674Z,99.90
2019-03-11T08:01:36.470Z,99.90
2019-03-11T08:04:04.467Z,99.90
2019-03-11T08:06:32.277Z,99.90
2019-03-11T08:09:00.213Z,99.90
2019-03-11T08:11:28.186Z,99.90
2019-03-11T08:13:56.156Z,99.90
2019-03-11T08:16:24.131Z,99.40
2019-03-11T08:18:52.103Z,98.80
2019-03-11T08:21:20.003Z,99.90
2019-03-11T08:23:47.935Z,99.10
2019-03-11T08:26:15.732Z,98.50
2019-03-11T08:28:43.688Z,99.10
2019-03-11T08:31:11.489Z,99.00
2019-03-11T08:33:39.279Z,98.00
2019-03-11T08:36:07.331Z,98.60
2019-03-11T08:38:35.149Z,97.40
2019-03-11T08:41:04.384Z,97.90
2019-03-11T08:43:32.209Z,95.50
2019-03-11T08:45:59.994Z,96.60
2019-03-11T08:48:27.992Z,95.10
2019-03-11T08:50:56.906Z,96.80
2019-03-11T08:53:24.725Z,96.50
2019-03-11T08:55:57.349Z,94.50
2019-03-11T08:58:25.137Z,94.10
2019-03-11T09:00:52.950Z,94.30
2019-03-11T09:03:20.950Z,93.90
2019-03-11T09:05:48.807Z,95.30
2019-03-11T09:08:16.601Z,96.10
2019-03-11T09:10:44.558Z,95.60
2019-03-11T09:13:12.363Z,96.20
2019-03-11T09:15:42.169Z,95.80
2019-03-11T09:18:09.984Z,96.10
2019-03-11T09:20:37.770Z,95.70
2019-03-11T09:23:05.898Z,95.90
2019-03-11T09:25:33.713Z,95.70
2019-03-11T09:28:01.496Z,95.10
2019-03-11T09:30:29.477Z,94.60
2019-03-11T09:32:57.470Z,94.20
2019-03-11T09:35:25.246Z,92.70
2019-03-11T09:37:53.197Z,93.60
2019-03-11T09:40:21.129Z,92.60
2019-03-11T09:42:49.239Z,93.20
2019-03-11T09:45:19.065Z,92.70
2019-03-11T09:47:46.983Z,93.00
2019-03-11T09:50:14.800Z,91.70
2019-03-11T09:52:42.777Z,90.70
2019-03-11T09:55:11.292Z,90.60
2019-03-11T09:57:39.283Z,89.30
2019-03-11T10:00:18.361Z,90.90
2019-03-11T10:02:52.548Z,90.20
2019-03-11T10:05:16.285Z,91.00
2019-03-11T10:07:44.361Z,89.50
2019-03-11T10:10:13.862Z,90.80
2019-03-11T10:12:42.748Z,91.10
2019-03-11T10:15:14.026Z,91.70
2019-03-11T10:17:41.835Z,92.60
2019-03-11T10:20:10.351Z,91.30
2019-03-11T10:22:38.317Z,90.40
2019-03-11T10:25:07.966Z,88.80
2019-03-11T10:27:35.807Z,86.20
2019-03-11T10:30:05.612Z,88.60
2019-03-11T10:32:33.705Z,87.90
2019-03-11T10:35:01.529Z,87.00
2019-03-11T10:37:29.333Z,85.00
2019-03-11T10:39:58.379Z,86.00
2019-03-11T10:42:26.503Z,83.20
2019-03-11T10:44:54.334Z,81.70
2019-03-11T10:47:22.360Z,79.90
2019-03-11T10:49:50.322Z,83.40
2019-03-11T10:52:18.236Z,83.80
2019-03-11T10:54:46.372Z,80.70
2019-03-11T10:57:14.332Z,82.10
2019-03-11T10:59:42.141Z,81.10
2019-03-11T11:02:09.933Z,78.90
2019-03-11T11:04:37.970Z,82.80
2019-03-11T11:07:05.809Z,82.20
2019-03-11T11:09:33.622Z,82.20
2019-03-11T11:12:01.627Z,80.80
2019-03-11T11:14:29.439Z,77.50
2019-03-11T11:16:57.246Z,78.10
2019-03-11T11:19:25.298Z,78.90
2019-03-11T11:21:54.688Z,79.00
2019-03-11T11:24:24.886Z,81.70
2019-03-11T11:26:52.888Z,81.30
2019-03-11T11:29:20.707Z,78.70
2019-03-11T11:31:48.722Z,76.50
2019-03-11T11:34:16.637Z,74.80
2019-03-11T11:36:44.570Z,73.30
2019-03-11T11:39:12.613Z,69.00
2019-03-11T11:41:40.688Z,69.50
2019-03-11T11:44:08.479Z,67.30
2019-03-11T11:46:36.268Z,70.80
2019-03-11T11:49:04.218Z,72.20
2019-03-11T11:51:32.214Z,69.80
2019-03-11T11:54:00.056Z,71.60
2019-03-11T11:56:28.144Z,72.50
2019-03-11T11:58:56.129Z,71.20
2019-03-11T12:01:24.046Z,68.00
2019-03-11T12:03:51.842Z,66.70
2019-03-11T12:06:19.846Z,62.80
2019-03-11T12:08:47.633Z,66.40
2019-03-11T12:11:15.594Z,70.70
2019-03-11T12:13:43.385Z,73.00
2019-03-11T12:16:11.335Z,75.70
2019-03-11T12:18:39.285Z,73.60
2019-03-11T12:21:07.092Z,70.30
2019-03-11T12:23:45.634Z,69.10
2019-03-11T12:26:05.201Z,66.50
2019-03-11T12:28:34.917Z,66.90
2019-03-11T12:31:02.963Z,67.50
2019-03-11T12:33:30.742Z,62.90
2019-03-11T12:36:00.711Z,63.20
2019-03-11T12:38:29.044Z,64.10
2019-03-11T12:40:57.222Z,63.80
2019-03-11T12:43:25.008Z,63.20
2019-03-11T12:45:52.847Z,60.20
2019-03-11T12:48:20.819Z,61.00
2019-03-11T12:50:49.923Z,61.00
2019-03-11T12:53:17.717Z,63.60
2019-03-11T12:55:45.541Z,60.00
2019-03-11T12:58:13.526Z,54.90
2019-03-11T13:00:41.318Z,57.30
2019-03-11T13:03:09.276Z,55.70
2019-03-11T13:05:38.377Z,56.70
2019-03-11T13:08:06.462Z,53.80
2019-03-11T13:10:34.349Z,53.50
2019-03-11T13:13:02.150Z,55.60
2019-03-11T13:15:30.050Z,57.60
2019-03-11T13:18:34.936Z,56.70
2019-03-11T13:21:11.347Z,55.50
2019-03-11T13:23:41.431Z,55.40
2019-03-11T13:26:08.855Z,54.70
2019-03-11T13:28:36.795Z,56.70
2019-03-11T13:31:04.587Z,57.40
2019-03-11T13:33:32.545Z,59.60
2019-03-11T13:36:00.516Z,58.70
2019-03-11T13:38:29.314Z,60.50
2019-03-11T13:40:57.294Z,61.40
2019-03-11T13:43:25.097Z,61.40
2019-03-11T13:45:53.639Z,60.80
2019-03-11T13:48:22.531Z,62.90
2019-03-11T13:50:50.359Z,65.50
2019-03-11T13:53:18.301Z,64.80
2019-03-11T13:55:47.376Z,64.00
2019-03-11T13:58:16.391Z,69.90
2019-03-11T14:00:44.223Z,66.60
2019-03-11T14:03:12.221Z,62.70
2019-03-11T14:05:40.039Z,62.80
2019-03-11T14:08:08.194Z,63.70
2019-03-11T14:10:36.138Z,61.80
2019-03-11T14:13:03.996Z,58.90
2019-03-11T14:15:31.987Z,58.60
2019-03-11T14:17:59.801Z,59.50
2019-03-11T14:20:27.727Z,60.00
2019-03-11T14:22:55.547Z,63.30
2019-03-11T14:25:23.573Z,67.00
2019-03-11T14:27:52.468Z,74.70
2019-03-11T14:30:20.665Z,79.20
2019-03-11T14:32:48.610Z,76.80
2019-03-11T14:35:16.513Z,69.50
2019-03-11T14:37:44.870Z,72.60
2019-03-11T14:40:12.718Z,74.50
2019-03-11T14:42:42.969Z,71.90
2019-03-11T14:45:13.354Z,75.10
2019-03-11T14:47:41.197Z,71.70
2019-03-11T14:50:10.238Z,73.80
2019-03-11T14:52:38.397Z,70.30
2019-03-11T14:55:06.315Z,71.10
2019-03-11T14:57:34.282Z,68.20
2019-03-11T15:00:02.253Z,64.60
2019-03-11T15:02:30.062Z,64.90
2019-03-11T15:04:59.334Z,64.80
2019-03-11T15:07:27.203Z,66.20
2019-03-11T15:09:55.117Z,65.90
2019-03-11T15:12:23.499Z,64.60
2019-03-11T15:14:51.611Z,62.20
2019-03-11T15:17:19.729Z,61.50
2019-03-11T15:19:48.960Z,60.60
2019-03-11T15:22:16.995Z,58.60
2019-03-11T15:24:44.856Z,60.20
2019-03-11T15:27:12.803Z,59.90
2019-03-11T15:29:40.814Z,60.40
2019-03-11T15:32:08.644Z,61.30
2019-03-11T15:34:36.661Z,60.60
2019-03-11T15:37:04.528Z,60.70
2019-03-11T15:39:32.359Z,62.50
2019-03-11T15:42:00.420Z,61.40
2019-03-11T15:44:28.248Z,61.40
2019-03-11T15:46:56.621Z,59.80
2019-03-11T15:49:24.649Z,61.50
2019-03-11T15:51:52.573Z,60.20
2019-03-11T15:54:20.547Z,62.50
2019-03-11T15:56:50.146Z,63.60
2019-03-11T15:59:18.161Z,63.50
2019-03-11T16:01:45.997Z,64.50
2019-03-11T16:04:13.816Z,65.50
2019-03-11T16:06:41.741Z,63.20
2019-03-11T16:09:10.420Z,63.90
2019-03-11T16:11:39.462Z,61.80
2019-03-11T16:14:07.400Z,64.10
2019-03-11T16:16:35.393Z,63.80
2019-03-11T16:19:03.306Z,64.80
2019-03-11T16:21:31.325Z,65.10
2019-03-11T16:23:59.313Z,65.90
2019-03-11T16:26:27.272Z,65.10
2019-03-11T16:28:55.091Z,63.00
2019-03-11T16:31:22.907Z,66.00
2019-03-11T16:33:50.921Z,64.80
2019-03-11T16:36:18.727Z,66.80
2019-03-11T16:38:46.710Z,65.60
2019-03-11T16:41:14.705Z,65.50
2019-03-11T16:43:42.620Z,64.60
2019-03-11T16:46:10.416Z,65.70
2019-03-11T16:48:38.423Z,65.30
2019-03-11T16:51:06.279Z,65.10
2019-03-11T16:53:34.180Z,64.60
2019-03-11T16:56:02.267Z,63.90
2019-03-11T16:58:30.431Z,63.80
2019-03-11T17:01:01.090Z,65.70
2019-03-11T17:03:29.145Z,64.90
2019-03-11T17:05:56.976Z,64.90
2019-03-11T17:08:24.996Z,65.70
2019-03-11T17:10:54.793Z,65.90
2019-03-11T17:13:22.600Z,64.70
2019-03-11T17:15:50.440Z,64.20
2019-03-11T17:18:22.245Z,64.40
2019-03-11T17:20:50.271Z,64.80
2019-03-11T17:23:18.238Z,66.90
2019-03-11T17:25:46.310Z,67.10
2019-03-11T17:28:14.173Z,68.10
2019-03-11T17:30:42.144Z,67.00
2019-03-11T17:33:10.133Z,67.60
2019-03-11T17:35:39.089Z,67.90
2019-03-11T17:38:06.892Z,67.80
2019-03-11T17:40:35.284Z,67.60
2019-03-11T17:43:03.291Z,67.70
2019-03-11T17:45:31.341Z,67.30
2019-03-11T17:47:59.426Z,67.20
2019-03-11T17:50:27.439Z,67.00
2019-03-11T17:52:55.427Z,66.20
2019-03-11T17:55:23.426Z,68.30
2019-03-11T17:57:51.407Z,65.70
2019-03-11T18:00:25.177Z,66.30
2019-03-11T18:02:52.641Z,67.30
2019-03-11T18:05:20.975Z,67.10
2019-03-11T18:07:48.877Z,66.80
2019-03-11T18:10:16.798Z,67.80
2019-03-11T18:12:45.280Z,66.70
2019-03-11T18:15:13.762Z,67.40
2019-03-11T18:17:41.729Z,68.30
2019-03-11T18:20:12.515Z,68.30
2019-03-11T18:22:40.640Z,67.90
2019-03-11T18:25:10.910Z,68.10
2019-03-11T18:27:38.901Z,67.70
2019-03-11T18:30:09.686Z,67.70
2019-03-11T18:32:39.284Z,67.60
2019-03-11T18:35:07.521Z,68.00
2019-03-11T18:37:35.879Z,68.50
2019-03-11T18:40:04.638Z,67.90
2019-03-11T18:42:32.508Z,67.10
2019-03-11T18:45:00.812Z,69.30
2019-03-11T18:47:30.451Z,69.00
2019-03-11T18:49:58.416Z,69.60
2019-03-11T18:52:26.374Z,69.00
2019-03-11T18:54:54.218Z,71.50
2019-03-11T18:57:22.042Z,71.50
2019-03-11T18:59:50.079Z,71.20
2019-03-11T19:02:17.930Z,71.80
2019-03-11T19:04:45.840Z,72.10
2019-03-11T19:07:13.913Z,72.40
2019-03-11T19:09:41.899Z,73.20
2019-03-11T19:12:09.822Z,72.20
2019-03-11T19:14:37.923Z,73.70
2019-03-11T19:17:06.069Z,75.00
2019-03-11T19:19:45.360Z,75.70
2019-03-11T19:22:04.113Z,75.10
2019-03-11T19:24:33.198Z,75.50
2019-03-11T19:27:01.745Z,75.90
2019-03-11T19:29:29.576Z,76.40
2019-03-11T19:31:57.781Z,78.30
2019-03-11T19:34:26.133Z,77.50
2019-03-11T19:36:54.345Z,77.00
2019-03-11T19:39:22.321Z,77.50
2019-03-11T19:41:50.127Z,81.70
2019-03-11T19:44:18.509Z,82.50
2019-03-11T19:46:46.787Z,83.30
2019-03-11T19:49:15.000Z,86.20
2019-03-11T19:51:42.862Z,85.60
2019-03-11T19:54:10.809Z,86.80
2019-03-11T19:56:38.883Z,88.40
2019-03-11T19:59:06.813Z,87.40
2019-03-11T20:01:35.115Z,87.50
2019-03-11T20:04:03.273Z,86.20
2019-03-11T20:06:31.207Z,88.00
2019-03-11T20:08:59.296Z,90.80
2019-03-11T20:11:27.473Z,91.40
2019-03-11T20:13:55.459Z,91.30
2019-03-11T20:16:23.507Z,91.30
2019-03-11T20:18:51.499Z,92.20
2019-03-11T20:21:19.309Z,92.40
2019-03-11T20:23:48.655Z,92.50
2019-03-11T20:26:20.133Z,92.90
2019-03-11T20:28:48.124Z,92.70
2019-03-11T20:31:17.951Z,93.00
2019-03-11T20:33:45.945Z,93.10
2019-03-11T20:36:20.942Z,93.10
2019-03-11T20:38:43.702Z,93.40
2019-03-11T20:41:11.664Z,93.80
2019-03-11T20:43:39.617Z,94.00
2019-03-11T20:46:09.454Z,94.20
2019-03-11T20:48:37.394Z,94.70
2019-03-11T20:51:05.306Z,95.60
2019-03-11T20:53:33.364Z,96.10
2019-03-11T20:56:01.228Z,96.10
2019-03-11T20:58:29.298Z,96.20
2019-03-11T21:00:57.487Z,96.70
2019-03-11T21:03:25.522Z,96.70
2019-03-11T21:05:54.126Z,96.70
2019-03-11T21:08:22.181Z,96.90
2019-03-11T21:10:50.204Z,97.00
2019-03-11T21:13:18.184Z,97.10
2019-03-11T21:15:48.626Z,97.00
2019-03-11T21:18:16.469Z,96.60
2019-03-11T21:20:45.709Z,97.80
2019-03-11T21:23:13.608Z,98.00
2019-03-11T21:25:41.540Z,98.30
2019-03-11T21:28:09.479Z,98.30
2019-03-11T21:30:37.734Z,98.80
2019-03-11T21:33:06.916Z,99.40
2019-03-11T21:35:36.579Z,99.80
2019-03-11T21:38:04.420Z,99.50
2019-03-11T21:40:32.380Z,99.30
2019-03-11T21:43:00.333Z,99.30
2019-03-11T21:45:34.027Z,99.70
2019-03-11T21:47:58.074Z,99.60
2019-03-11T21:50:26.426Z,99.60
2019-03-11T21:52:54.300Z,99.90
2019-03-11T21:55:22.272Z,99.40
2019-03-11T21:57:51.515Z,99.50
2019-03-11T22:00:32.901Z,99.90
2019-03-11T22:02:51.140Z,99.10
2019-03-11T22:05:19.110Z,99.90
2019-03-11T22:07:46.952Z,99.80
2019-03-11T22:10:14.887Z,99.90
2019-03-11T22:12:42.805Z,99.90
2019-03-11T22:15:11.799Z,99.90
2019-03-11T22:17:40.085Z,99.90
2019-03-11T22:20:10.500Z,99.90
2019-03-11T22:22:40.322Z,99.90
2019-03-11T22:25:10.419Z,99.90
2019-03-11T22:27:38.247Z,99.90
2019-03-11T22:30:13.163Z,99.90
2019-03-11T22:32:41.574Z,99.90
2019-03-11T22:35:13.208Z,99.90
2019-03-11T22:37:39.410Z,99.90
2019-03-11T22:40:08.403Z,99.90
2019-03-11T22:42:36.434Z,99.90
2019-03-11T22:45:06.205Z,99.90
2019-03-11T22:47:34.023Z,99.90
2019-03-11T22:50:01.834Z,99.90
2019-03-11T22:52:29.850Z,99.90
2019-03-11T22:54:57.657Z,99.90
2019-03-11T22:57:25.491Z,99.90
2019-03-11T22:59:58.724Z,99.90
2019-03-11T23:02:28.083Z,99.90
2019-03-11T23:04:55.927Z,99.90
2019-03-11T23:07:24.228Z,99.90
2019-03-11T23:09:52.429Z,99.90
2019-03-11T23:12:20.520Z,99.90
2019-03-11T23:14:48.888Z,99.90
2019-03-11T23:17:16.730Z,99.90
2019-03-11T23:19:44.546Z,99.90
2019-03-11T23:22:12.479Z,99.90
2019-03-11T23:24:40.394Z,99.90
2019-03-11T23:27:08.935Z,99.90
2019-03-11T23:29:36.924Z,99.90
2019-03-11T23:32:04.732Z,99.90
2019-03-11T23:34:33.622Z,99.90
2019-03-11T23:37:01.966Z,99.90
2019-03-11T23:39:30.093Z,99.90
2019-03-11T23:41:58.115Z,99.90
2019-03-11T23:44:26.015Z,99.90
2019-03-11T23:46:54.058Z,99.90
2019-03-11T23:49:21.884Z,99.90
2019-03-11T23:51:49.912Z,99.90
2019-03-11T23:54:19.217Z,99.90
2019-03-11T23:56:47.041Z,99.90
2019-03-11T23:59:14.844Z,99.90
